createdAt,value
2022-10-07T00:01:11.040Z,5.69
2022-10-07T00:03:39.293Z,5.68
2022-10-07T00:06:20.358Z,5.72
2022-10-07T00:08:52.283Z,5.64
2022-10-07T00:11:28.236Z,5.71
2022-10-07T00:13:59.224Z,5.63
2022-10-07T00:16:30.642Z,5.61
2022-10-07T00:19:01.512Z,5.60
2022-10-07T00:21:31.414Z,5.54
2022-10-07T00:24:00.290Z,5.54
2022-10-07T00:26:30.600Z,5.46
2022-10-07T00:28:58.736Z,5.41
2022-10-07T00:31:29.258Z,5.46
2022-10-07T00:33:57.777Z,5.53
2022-10-07T00:36:30.202Z,5.52
2022-10-07T00:39:00.846Z,5.48
2022-10-07T00:41:37.454Z,5.43
2022-10-07T00:44:36.917Z,5.54
2022-10-07T00:47:13.390Z,5.57
2022-10-07T00:50:06.523Z,5.51
2022-10-07T00:52:44.345Z,5.42
2022-10-07T00:55:17.026Z,5.32
2022-10-07T00:57:48.310Z,5.24
2022-10-07T01:00:17.228Z,5.20
2022-10-07T01:02:45.351Z,5.18
2022-10-07T01:05:14.312Z,5.10
2022-10-07T01:07:46.388Z,5.08
2022-10-07T01:10:18.728Z,5.14
2022-10-07T01:13:36.694Z,5.05
2022-10-07T01:16:53.767Z,5.04
2022-10-07T01:19:52.116Z,5.18
2022-10-07T01:23:23.770Z,5.07
2022-10-07T01:26:14.932Z,4.92
2022-10-07T01:28:51.711Z,4.92
2022-10-07T01:31:25.264Z,4.87
2022-10-07T01:33:56.161Z,4.84
2022-10-07T01:36:26.701Z,4.82
2022-10-07T01:39:02.578Z,4.81
2022-10-07T01:41:32.276Z,4.78
2022-10-07T01:44:01.534Z,4.69
2022-10-07T01:46:30.640Z,4.66
2022-10-07T01:49:01.584Z,4.65
2022-10-07T01:51:33.850Z,4.59
2022-10-07T01:54:16.197Z,4.56
2022-10-07T01:57:10.060Z,4.52
2022-10-07T01:59:40.905Z,4.53
2022-10-07T02:02:52.127Z,4.50
2022-10-07T02:06:01.517Z,4.50
2022-10-07T02:08:39.528Z,4.45
2022-10-07T02:11:15.984Z,4.44
2022-10-07T02:14:02.915Z,4.44
2022-10-07T02:16:51.032Z,4.44
2022-10-07T02:19:28.542Z,4.33
2022-10-07T02:21:58.369Z,4.33
2022-10-07T02:24:30.884Z,4.30
2022-10-07T02:27:02.285Z,4.42
2022-10-07T02:29:34.082Z,4.29
2022-10-07T02:32:06.461Z,4.32
2022-10-07T02:34:36.588Z,4.32
2022-10-07T02:37:14.814Z,4.31
2022-10-07T02:39:44.722Z,4.30
2022-10-07T02:42:39.954Z,4.33
2022-10-07T02:45:31.755Z,4.30
2022-10-07T02:48:04.342Z,4.27
2022-10-07T02:50:39.992Z,4.21
2022-10-07T02:53:13.689Z,4.21
2022-10-07T02:55:44.358Z,4.22
2022-10-07T02:58:14.200Z,4.29
2022-10-07T03:00:47.585Z,4.24
2022-10-07T03:03:17.023Z,4.26
2022-10-07T03:06:00.749Z,4.33
2022-10-07T03:08:30.579Z,4.20
2022-10-07T03:10:59.273Z,4.30
2022-10-07T03:13:27.052Z,4.10
2022-10-07T03:15:59.760Z,4.00
2022-10-07T03:18:30.036Z,3.92
2022-10-07T03:21:16.552Z,3.90
2022-10-07T03:23:45.133Z,3.91
2022-10-07T03:26:13.520Z,3.93
2022-10-07T03:28:41.437Z,4.01
2022-10-07T03:31:11.924Z,4.04
2022-10-07T03:33:45.673Z,4.05
2022-10-07T03:36:13.694Z,4.07
2022-10-07T03:38:44.316Z,4.08
2022-10-07T03:41:13.305Z,4.00
2022-10-07T03:43:41.136Z,3.98
2022-10-07T03:46:10.686Z,3.96
2022-10-07T03:48:39.543Z,3.94
2022-10-07T03:51:08.169Z,3.90
2022-10-07T03:53:41.516Z,3.93
2022-10-07T03:56:09.325Z,4.00
2022-10-07T03:58:39.378Z,3.91
2022-10-07T04:01:12.440Z,3.89
2022-10-07T04:03:46.338Z,3.87
2022-10-07T04:06:14.687Z,3.90
2022-10-07T04:08:43.676Z,3.90
2022-10-07T04:11:12.305Z,3.90
2022-10-07T04:13:42.995Z,3.93
2022-10-07T04:16:11.317Z,3.84
2022-10-07T04:18:41.992Z,3.83
2022-10-07T04:21:11.549Z,3.85
2022-10-07T04:23:41.472Z,3.81
2022-10-07T04:26:12.061Z,3.87
2022-10-07T04:28:44.025Z,3.85
2022-10-07T04:31:14.902Z,3.80
2022-10-07T04:33:46.573Z,3.87
2022-10-07T04:36:20.116Z,3.82
2022-10-07T04:38:53.158Z,3.79
2022-10-07T04:41:26.512Z,3.81
2022-10-07T04:43:57.680Z,3.90
2022-10-07T04:46:28.591Z,3.87
2022-10-07T04:49:05.704Z,3.88
2022-10-07T04:51:33.646Z,3.81
2022-10-07T04:54:02.127Z,3.82
2022-10-07T04:56:36.284Z,3.82
2022-10-07T04:59:07.066Z,3.96
2022-10-07T05:01:37.001Z,3.91
2022-10-07T05:04:05.116Z,3.97
2022-10-07T05:06:34.166Z,4.00
2022-10-07T05:09:02.255Z,4.11
2022-10-07T05:11:34.006Z,4.16
2022-10-07T05:14:08.372Z,4.22
2022-10-07T05:16:37.450Z,4.28
2022-10-07T05:19:06.345Z,4.28
2022-10-07T05:21:34.229Z,4.34
2022-10-07T05:24:04.594Z,4.66
2022-10-07T05:26:36.485Z,4.65
2022-10-07T05:29:06.981Z,4.65
2022-10-07T05:31:45.550Z,4.66
2022-10-07T05:34:16.596Z,4.68
2022-10-07T05:36:44.882Z,4.81
2022-10-07T05:39:14.665Z,4.94
2022-10-07T05:41:55.713Z,5.14
2022-10-07T05:44:29.582Z,5.32
2022-10-07T05:46:58.984Z,5.56
2022-10-07T05:49:27.937Z,5.71
2022-10-07T05:51:56.363Z,5.76
2022-10-07T05:54:24.864Z,5.90
2022-10-07T05:56:54.955Z,6.01
2022-10-07T05:59:24.099Z,6.04
2022-10-07T06:01:52.241Z,6.26
2022-10-07T06:04:22.346Z,6.55
2022-10-07T06:06:52.884Z,7.25
2022-10-07T06:09:39.585Z,8.68
2022-10-07T06:12:31.824Z,9.79
2022-10-07T06:15:04.181Z,11.59
2022-10-07T06:17:32.182Z,12.65
2022-10-07T06:20:02.394Z,12.78
2022-10-07T06:22:30.466Z,12.08
2022-10-07T06:25:01.039Z,12.13
2022-10-07T06:27:30.249Z,11.98
2022-10-07T06:29:58.151Z,12.69
2022-10-07T06:32:25.880Z,13.49
2022-10-07T06:34:54.261Z,13.43
2022-10-07T06:37:22.895Z,13.29
2022-10-07T06:39:51.070Z,13.34
2022-10-07T06:42:18.936Z,12.52
2022-10-07T06:45:19.007Z,12.52
2022-10-07T06:47:48.923Z,11.84
2022-10-07T06:50:16.933Z,11.60
2022-10-07T06:52:44.801Z,11.25
2022-10-07T06:55:12.796Z,11.43
2022-10-07T06:57:45.608Z,11.46
2022-10-07T07:00:15.333Z,11.24
2022-10-07T07:02:44.911Z,11.32
2022-10-07T07:05:16.446Z,11.37
2022-10-07T07:07:46.452Z,11.71
2022-10-07T07:10:15.062Z,12.08
2022-10-07T07:12:46.890Z,12.09
2022-10-07T07:15:15.277Z,12.27
2022-10-07T07:17:43.368Z,12.78
2022-10-07T07:20:13.391Z,12.79
2022-10-07T07:22:42.089Z,12.72
2022-10-07T07:25:11.169Z,12.67
2022-10-07T07:27:39.414Z,12.90
2022-10-07T07:30:09.354Z,13.24
2022-10-07T07:32:37.147Z,13.47
2022-10-07T07:35:05.614Z,13.51
2022-10-07T07:37:33.948Z,13.55
2022-10-07T07:40:01.973Z,13.60
2022-10-07T07:42:31.818Z,14.11
2022-10-07T07:45:00.993Z,15.44
2022-10-07T07:47:29.856Z,17.75
2022-10-07T07:49:57.978Z,20.27
2022-10-07T07:52:30.715Z,22.37
2022-10-07T07:55:02.643Z,23.99
2022-10-07T07:57:31.554Z,25.04
2022-10-07T08:00:05.662Z,26.14
2022-10-07T08:02:42.268Z,26.61
2022-10-07T08:05:14.714Z,27.25
2022-10-07T08:07:42.458Z,28.02
2022-10-07T08:10:11.578Z,28.59
2022-10-07T08:12:40.280Z,29.33
2022-10-07T08:15:10.841Z,29.06
2022-10-07T08:17:39.990Z,29.59
2022-10-07T08:20:10.797Z,29.22
2022-10-07T08:22:39.538Z,29.58
2022-10-07T08:25:08.099Z,29.80
2022-10-07T08:27:36.150Z,30.28
2022-10-07T08:30:04.397Z,30.65
2022-10-07T08:32:32.528Z,30.17
2022-10-07T08:35:00.266Z,30.21
2022-10-07T08:37:28.318Z,30.14
2022-10-07T08:39:56.251Z,30.24
2022-10-07T08:42:40.346Z,30.37
2022-10-07T08:45:14.671Z,30.27
2022-10-07T08:47:47.646Z,31.09
2022-10-07T08:50:45.065Z,30.89
2022-10-07T08:53:21.107Z,30.58
2022-10-07T08:55:53.943Z,29.91
2022-10-07T08:58:44.908Z,29.33
2022-10-07T09:01:34.206Z,29.44
2022-10-07T09:04:35.030Z,29.13
2022-10-07T09:07:10.682Z,29.42
2022-10-07T09:09:41.146Z,29.41
2022-10-07T09:12:22.835Z,29.51
2022-10-07T09:14:55.767Z,29.86
2022-10-07T09:17:58.616Z,29.39
2022-10-07T09:20:39.223Z,29.10
2022-10-07T09:23:12.760Z,28.31
2022-10-07T09:25:41.522Z,28.19
2022-10-07T09:28:15.054Z,27.95
2022-10-07T09:30:43.754Z,28.32
2022-10-07T09:33:18.597Z,28.83
2022-10-07T09:35:57.540Z,29.79
2022-10-07T09:38:47.442Z,29.54
2022-10-07T09:41:32.783Z,29.31
2022-10-07T09:44:12.415Z,29.66
2022-10-07T09:46:57.312Z,29.45
2022-10-07T09:49:31.576Z,28.44
2022-10-07T09:52:06.200Z,28.15
2022-10-07T09:54:36.611Z,28.24
2022-10-07T09:57:06.181Z,28.02
2022-10-07T09:59:36.272Z,27.92
2022-10-07T10:02:22.851Z,27.48
2022-10-07T10:04:53.735Z,27.49
2022-10-07T10:07:36.322Z,26.83
2022-10-07T10:10:27.237Z,25.36
2022-10-07T10:12:58.164Z,23.27
2022-10-07T10:15:41.180Z,21.96
2022-10-07T10:18:27.736Z,21.09
2022-10-07T10:20:55.910Z,20.61
2022-10-07T10:23:36.927Z,20.45
2022-10-07T10:26:30.827Z,20.16
2022-10-07T10:29:31.801Z,19.68
2022-10-07T10:32:02.743Z,19.33
2022-10-07T10:34:50.286Z,19.18
2022-10-07T10:37:26.705Z,19.09
2022-10-07T10:40:09.414Z,19.21
2022-10-07T10:42:50.638Z,19.21
2022-10-07T10:45:18.445Z,19.04
2022-10-07T10:48:24.388Z,18.96
2022-10-07T10:51:11.627Z,18.93
2022-10-07T10:53:56.768Z,18.92
2022-10-07T10:56:34.336Z,18.83
2022-10-07T10:59:16.336Z,18.83
2022-10-07T11:01:50.719Z,18.78
2022-10-07T11:04:45.390Z,18.75
2022-10-07T11:07:21.804Z,18.85
2022-10-07T11:09:55.266Z,18.78
2022-10-07T11:12:29.203Z,19.02
2022-10-07T11:15:16.328Z,18.98
2022-10-07T11:17:47.522Z,18.91
2022-10-07T11:20:42.269Z,19.05
2022-10-07T11:23:31.027Z,19.15
2022-10-07T11:26:23.071Z,19.12
2022-10-07T11:28:51.968Z,19.09
2022-10-07T11:31:36.973Z,19.14
2022-10-07T11:34:07.566Z,19.20
2022-10-07T11:36:41.365Z,19.29
2022-10-07T11:39:09.647Z,19.34
2022-10-07T11:41:52.681Z,19.25
2022-10-07T11:44:47.567Z,19.31
2022-10-07T11:47:21.438Z,19.31
2022-10-07T11:50:28.003Z,19.36
2022-10-07T11:53:02.660Z,19.42
2022-10-07T11:55:44.221Z,19.34
2022-10-07T11:58:32.019Z,19.25
2022-10-07T12:01:28.871Z,19.39
2022-10-07T12:04:19.159Z,19.35
2022-10-07T12:07:24.061Z,19.31
2022-10-07T12:10:03.716Z,19.44
2022-10-07T12:12:44.734Z,19.29
2022-10-07T12:15:33.098Z,19.40
2022-10-07T12:18:06.023Z,19.44
2022-10-07T12:20:58.672Z,19.60
2022-10-07T12:23:26.548Z,19.47
2022-10-07T12:26:02.626Z,19.41
2022-10-07T12:28:48.734Z,19.54
2022-10-07T12:31:17.918Z,19.42
2022-10-07T12:33:56.437Z,19.46
2022-10-07T12:36:25.458Z,19.54
2022-10-07T12:39:01.004Z,19.52
2022-10-07T12:41:47.383Z,19.41
2022-10-07T12:44:38.569Z,19.48
2022-10-07T12:47:16.240Z,19.57
2022-10-07T12:49:59.121Z,19.47
2022-10-07T12:52:53.452Z,19.52
2022-10-07T12:55:37.212Z,19.44
2022-10-07T12:58:53.198Z,19.66
2022-10-07T13:01:52.713Z,19.62
2022-10-07T13:04:39.194Z,19.37
2022-10-07T13:07:21.648Z,19.53
2022-10-07T13:10:08.083Z,19.55
2022-10-07T13:13:10.996Z,19.44
2022-10-07T13:16:27.491Z,19.62
2022-10-07T13:19:06.328Z,19.45
2022-10-07T13:21:39.668Z,19.59
2022-10-07T13:24:16.732Z,19.56
2022-10-07T13:26:46.540Z,19.55
2022-10-07T13:29:25.459Z,19.51
2022-10-07T13:32:11.748Z,19.35
2022-10-07T13:34:40.179Z,19.45
2022-10-07T13:37:28.493Z,19.45
2022-10-07T13:40:16.088Z,19.44
2022-10-07T13:42:44.512Z,19.32
2022-10-07T13:45:16.036Z,19.34
2022-10-07T13:47:46.921Z,19.15
2022-10-07T13:50:26.883Z,19.22
2022-10-07T13:52:56.128Z,19.09
2022-10-07T13:55:28.639Z,19.04
2022-10-07T13:57:58.464Z,19.05
2022-10-07T14:00:29.650Z,19.02
2022-10-07T14:02:57.981Z,18.96
2022-10-07T14:05:28.577Z,18.96
2022-10-07T14:08:11.332Z,18.97
2022-10-07T14:10:57.285Z,18.94
2022-10-07T14:13:28.973Z,18.91
2022-10-07T14:15:58.506Z,18.78
2022-10-07T14:18:32.026Z,18.71
2022-10-07T14:21:16.967Z,18.70
2022-10-07T14:23:48.773Z,18.74
2022-10-07T14:26:18.023Z,18.63
2022-10-07T14:28:45.857Z,18.56
2022-10-07T14:31:38.601Z,18.44
2022-10-07T14:34:38.816Z,18.26
2022-10-07T14:37:18.624Z,18.02
2022-10-07T14:39:49.607Z,18.05
2022-10-07T14:42:18.137Z,18.07
2022-10-07T14:44:46.730Z,18.06
2022-10-07T14:47:21.082Z,18.05
2022-10-07T14:49:48.862Z,18.07
2022-10-07T14:52:44.566Z,18.00
2022-10-07T14:55:23.532Z,17.85
2022-10-07T14:57:52.616Z,17.71
2022-10-07T15:00:25.585Z,17.62
2022-10-07T15:02:54.644Z,17.45
2022-10-07T15:05:23.366Z,17.37
2022-10-07T15:07:51.330Z,17.15
2022-10-07T15:10:23.651Z,17.04
2022-10-07T15:12:51.472Z,16.86
2022-10-07T15:15:19.959Z,16.74
2022-10-07T15:17:48.096Z,16.74
2022-10-07T15:20:17.102Z,16.55
2022-10-07T15:22:45.924Z,16.43
2022-10-07T15:25:18.057Z,16.32
2022-10-07T15:27:46.251Z,16.16
2022-10-07T15:30:14.234Z,16.09
2022-10-07T15:32:42.152Z,15.96
2022-10-07T15:35:10.278Z,15.83
2022-10-07T15:37:37.985Z,15.79
2022-10-07T15:40:07.636Z,15.72
2022-10-07T15:42:35.707Z,15.55
2022-10-07T15:45:03.700Z,15.44
2022-10-07T15:47:33.309Z,15.33
2022-10-07T15:50:01.674Z,15.21
2022-10-07T15:52:30.653Z,15.05
2022-10-07T15:55:02.579Z,14.83
2022-10-07T15:57:33.109Z,14.67
2022-10-07T16:00:02.441Z,14.62
2022-10-07T16:02:39.868Z,14.49
2022-10-07T16:05:09.544Z,14.38
2022-10-07T16:07:37.633Z,14.34
2022-10-07T16:10:10.713Z,14.18
2022-10-07T16:12:40.418Z,14.01
2022-10-07T16:15:08.611Z,13.86
2022-10-07T16:17:36.263Z,13.81
2022-10-07T16:20:10.365Z,13.76
2022-10-07T16:22:39.446Z,13.69
2022-10-07T16:25:07.345Z,13.58
2022-10-07T16:27:53.898Z,13.41
2022-10-07T16:30:40.043Z,13.29
2022-10-07T16:33:08.585Z,13.12
2022-10-07T16:35:36.299Z,13.00
2022-10-07T16:38:04.963Z,12.96
2022-10-07T16:40:32.677Z,12.86
2022-10-07T16:43:00.512Z,12.79
2022-10-07T16:45:28.563Z,12.81
2022-10-07T16:47:56.999Z,12.75
2022-10-07T16:50:24.715Z,12.73
2022-10-07T16:52:52.985Z,12.71
2022-10-07T16:55:20.869Z,12.71
2022-10-07T16:57:49.083Z,12.82
2022-10-07T17:00:17.527Z,12.82
2022-10-07T17:02:45.492Z,12.90
2022-10-07T17:05:13.419Z,12.81
2022-10-07T17:07:41.224Z,12.76
2022-10-07T17:10:09.604Z,12.82
2022-10-07T17:12:38.021Z,12.82
2022-10-07T17:15:06.151Z,12.73
2022-10-07T17:17:34.143Z,12.77
2022-10-07T17:20:02.018Z,12.71
2022-10-07T17:22:30.000Z,12.63
2022-10-07T17:24:57.948Z,12.66
2022-10-07T17:27:25.917Z,12.57
2022-10-07T17:29:55.433Z,12.51
2022-10-07T17:32:24.206Z,12.47
2022-10-07T17:34:51.904Z,12.40
2022-10-07T17:37:19.848Z,12.30
2022-10-07T17:39:48.174Z,12.29
2022-10-07T17:42:16.145Z,12.25
2022-10-07T17:44:43.836Z,12.18
2022-10-07T17:47:11.842Z,12.12
2022-10-07T17:49:39.697Z,12.15
2022-10-07T17:52:07.659Z,12.17
2022-10-07T17:54:36.019Z,12.10
2022-10-07T17:57:04.945Z,12.10
2022-10-07T17:59:32.903Z,12.01
2022-10-07T18:02:00.709Z,11.99
2022-10-07T18:04:28.847Z,11.90
2022-10-07T18:06:58.189Z,11.88
2022-10-07T18:09:27.509Z,11.85
2022-10-07T18:12:13.848Z,11.87
2022-10-07T18:15:00.505Z,11.86
2022-10-07T18:17:28.721Z,11.76
2022-10-07T18:19:58.014Z,11.69
2022-10-07T18:22:25.954Z,11.56
2022-10-07T18:24:58.482Z,11.53
2022-10-07T18:27:27.251Z,11.55
2022-10-07T18:29:55.975Z,11.59
2022-10-07T18:32:24.560Z,11.60
2022-10-07T18:34:52.780Z,11.48
2022-10-07T18:37:20.892Z,11.40
2022-10-07T18:39:48.558Z,11.41
2022-10-07T18:42:16.700Z,11.42
2022-10-07T18:44:44.361Z,11.38
2022-10-07T18:47:12.300Z,11.41
2022-10-07T18:49:40.244Z,11.33
2022-10-07T18:52:08.084Z,11.29
2022-10-07T18:54:35.761Z,11.20
2022-10-07T18:57:04.002Z,11.23
2022-10-07T18:59:31.717Z,11.20
2022-10-07T19:01:59.637Z,11.14
2022-10-07T19:04:28.861Z,11.14
2022-10-07T19:06:56.611Z,11.09
2022-10-07T19:09:25.430Z,11.08
2022-10-07T19:11:53.361Z,11.06
2022-10-07T19:14:25.792Z,11.12
2022-10-07T19:16:54.255Z,11.12
2022-10-07T19:19:24.211Z,11.11
2022-10-07T19:21:54.290Z,11.06
2022-10-07T19:24:46.033Z,11.09
2022-10-07T19:27:14.344Z,11.03
2022-10-07T19:29:42.241Z,11.04
2022-10-07T19:32:09.956Z,10.96
2022-10-07T19:34:37.769Z,10.96
2022-10-07T19:37:06.471Z,10.96
2022-10-07T19:39:34.454Z,10.92
2022-10-07T19:42:02.393Z,11.18
2022-10-07T19:44:30.375Z,11.14
2022-10-07T19:46:58.226Z,11.16
2022-10-07T19:49:26.105Z,11.15
2022-10-07T19:51:53.780Z,11.19
2022-10-07T19:54:21.691Z,11.27
2022-10-07T19:56:49.466Z,11.25
2022-10-07T19:59:17.167Z,11.43
2022-10-07T20:01:47.493Z,11.35
2022-10-07T20:04:18.712Z,11.33
2022-10-07T20:06:47.190Z,11.40
2022-10-07T20:09:17.427Z,11.42
2022-10-07T20:11:46.922Z,11.38
2022-10-07T20:14:16.160Z,11.46
2022-10-07T20:16:44.456Z,11.46
2022-10-07T20:19:15.837Z,11.51
2022-10-07T20:21:44.030Z,11.34
2022-10-07T20:24:16.508Z,11.42
2022-10-07T20:26:45.096Z,11.51
2022-10-07T20:29:15.984Z,11.41
2022-10-07T20:31:45.092Z,11.40
2022-10-07T20:34:16.341Z,11.44
2022-10-07T20:36:44.334Z,11.40
2022-10-07T20:39:38.622Z,11.59
2022-10-07T20:42:22.235Z,11.52
2022-10-07T20:44:51.514Z,11.54
2022-10-07T20:47:21.591Z,11.61
2022-10-07T20:49:51.250Z,11.54
2022-10-07T20:52:22.780Z,11.52
2022-10-07T20:54:51.496Z,11.56
2022-10-07T20:57:28.694Z,11.50
2022-10-07T20:59:56.501Z,11.47
2022-10-07T21:02:25.161Z,11.43
2022-10-07T21:04:53.640Z,11.50
2022-10-07T21:07:21.685Z,11.49
2022-10-07T21:09:49.556Z,11.49
2022-10-07T21:12:18.371Z,11.52
2022-10-07T21:14:48.061Z,11.51
2022-10-07T21:17:16.751Z,11.51
2022-10-07T21:19:45.025Z,11.60
2022-10-07T21:22:13.021Z,11.53
2022-10-07T21:24:40.706Z,11.51
2022-10-07T21:27:08.675Z,11.49
2022-10-07T21:29:40.655Z,11.63
2022-10-07T21:32:10.323Z,11.53
2022-10-07T21:34:38.672Z,11.46
2022-10-07T21:37:06.538Z,11.58
2022-10-07T21:39:34.398Z,11.54
2022-10-07T21:42:02.558Z,11.49
2022-10-07T21:44:33.351Z,11.45
2022-10-07T21:47:01.284Z,11.43
2022-10-07T21:49:29.882Z,11.48
2022-10-07T21:51:59.436Z,11.45
2022-10-07T21:54:27.591Z,11.45
2022-10-07T21:56:55.516Z,11.39
2022-10-07T21:59:23.843Z,11.43
2022-10-07T22:01:51.721Z,11.45
2022-10-07T22:04:20.160Z,11.47
2022-10-07T22:07:06.551Z,11.40
2022-10-07T22:09:35.756Z,11.41
2022-10-07T22:12:03.580Z,11.31
2022-10-07T22:14:31.561Z,11.39
2022-10-07T22:16:59.289Z,11.37
2022-10-07T22:19:26.974Z,11.28
2022-10-07T22:21:55.379Z,11.33
2022-10-07T22:24:24.135Z,11.22
2022-10-07T22:26:52.126Z,11.22
2022-10-07T22:29:21.725Z,11.20
2022-10-07T22:31:49.702Z,11.24
2022-10-07T22:34:36.513Z,11.15
2022-10-07T22:37:05.542Z,11.21
2022-10-07T22:39:33.362Z,11.08
2022-10-07T22:42:01.929Z,11.20
2022-10-07T22:44:29.660Z,11.22
2022-10-07T22:46:59.838Z,11.23
2022-10-07T22:49:30.094Z,11.16
2022-10-07T22:51:59.941Z,11.21
2022-10-07T22:54:29.842Z,11.09
2022-10-07T22:56:57.815Z,11.03
2022-10-07T22:59:25.592Z,11.13
2022-10-07T23:01:53.448Z,11.15
2022-10-07T23:04:21.605Z,11.11
2022-10-07T23:06:49.589Z,11.09
2022-10-07T23:09:17.335Z,11.24
2022-10-07T23:11:45.848Z,11.12
2022-10-07T23:14:13.952Z,11.05
2022-10-07T23:16:41.961Z,11.16
2022-10-07T23:19:10.150Z,11.13
2022-10-07T23:21:38.038Z,11.17
2022-10-07T23:24:08.063Z,11.11
2022-10-07T23:26:36.995Z,11.10
2022-10-07T23:29:07.563Z,11.15
2022-10-07T23:31:35.673Z,11.19
2022-10-07T23:34:04.934Z,11.13
2022-10-07T23:36:34.825Z,11.18
2022-10-07T23:39:02.780Z,11.17
2022-10-07T23:41:32.016Z,11.08
2022-10-07T23:44:02.231Z,11.09
2022-10-07T23:46:39.657Z,11.08
2022-10-07T23:49:07.666Z,11.01
2022-10-07T23:51:35.352Z,10.93
2022-10-07T23:54:04.935Z,11.04
2022-10-07T23:56:33.367Z,11.19
2022-10-07T23:59:02.504Z,11.02
